sensor_id;sensor_type;location;lat;lon;timestamp;P1;durP1;ratioP1;P2;durP2;ratioP2
9007;SDS011;62813;51.424;6.762;2023-11-18T00:02:16;32.67;;;19.80;;
9007;SDS011;62813;51.424;6.762;2023-11-18T00:04:44;31.67;;;19.90;;
9007;SDS011;62813;51.424;6.762;2023-11-18T00:07:11;31.60;;;19.30;;
9007;SDS011;62813;51.424;6.762;2023-11-18T00:09:37;33.27;;;19.73;;
9007;SDS011;62813;51.424;6.762;2023-11-18T00:12:04;31.87;;;19.93;;
9007;SDS011;62813;51.424;6.762;2023-11-18T00:14:31;34.07;;;19.80;;
9007;SDS011;62813;51.424;6.762;2023-11-18T00:16:58;30.30;;;17.93;;
9007;SDS011;62813;51.424;6.762;2023-11-18T00:19:25;31.63;;;18.67;;
9007;SDS011;62813;51.424;6.762;2023-11-18T00:21:52;27.90;;;18.33;;
9007;SDS011;62813;51.424;6.762;2023-11-18T00:24:19;31.03;;;18.30;;
9007;SDS011;62813;51.424;6.762;2023-11-18T00:26:46;29.20;;;18.13;;
9007;SDS011;62813;51.424;6.762;2023-11-18T00:29:13;30.53;;;18.17;;
9007;SDS011;62813;51.424;6.762;2023-11-18T00:31:40;26.70;;;18.30;;
9007;SDS011;62813;51.424;6.762;2023-11-18T00:34:07;28.33;;;18.63;;
9007;SDS011;62813;51.424;6.762;2023-11-18T00:36:34;35.20;;;18.87;;
9007;SDS011;62813;51.424;6.762;2023-11-18T00:39:00;30.37;;;18.53;;
9007;SDS011;62813;51.424;6.762;2023-11-18T00:41:27;31.97;;;18.93;;
9007;SDS011;62813;51.424;6.762;2023-11-18T00:43:54;29.47;;;18.50;;
9007;SDS011;62813;51.424;6.762;2023-11-18T00:46:21;34.40;;;19.37;;
9007;SDS011;62813;51.424;6.762;2023-11-18T00:48:48;35.67;;;19.43;;
9007;SDS011;62813;51.424;6.762;2023-11-18T00:51:15;32.10;;;19.13;;
9007;SDS011;62813;51.424;6.762;2023-11-18T00:53:42;28.07;;;18.13;;
9007;SDS011;62813;51.424;6.762;2023-11-18T00:56:08;34.13;;;19.23;;
9007;SDS011;62813;51.424;6.762;2023-11-18T00:58:42;32.03;;;18.90;;
9007;SDS011;62813;51.424;6.762;2023-11-18T01:01:08;34.23;;;19.00;;
9007;SDS011;62813;51.424;6.762;2023-11-18T01:03:36;32.10;;;18.43;;
9007;SDS011;62813;51.424;6.762;2023-11-18T01:06:04;29.97;;;18.00;;
9007;SDS011;62813;51.424;6.762;2023-11-18T01:08:32;31.80;;;19.77;;
9007;SDS011;62813;51.424;6.762;2023-11-18T01:10:59;37.53;;;19.37;;
9007;SDS011;62813;51.424;6.762;2023-11-18T01:13:26;32.67;;;19.43;;
9007;SDS011;62813;51.424;6.762;2023-11-18T01:15:53;38.37;;;20.60;;
9007;SDS011;62813;51.424;6.762;2023-11-18T01:18:20;33.70;;;19.60;;
9007;SDS011;62813;51.424;6.762;2023-11-18T01:20:47;33.97;;;19.60;;
9007;SDS011;62813;51.424;6.762;2023-11-18T01:23:14;31.13;;;18.20;;
9007;SDS011;62813;51.424;6.762;2023-11-18T01:25:41;32.93;;;19.47;;
9007;SDS011;62813;51.424;6.762;2023-11-18T01:28:08;33.53;;;20.33;;
9007;SDS011;62813;51.424;6.762;2023-11-18T01:30:35;33.57;;;19.67;;
9007;SDS011;62813;51.424;6.762;2023-11-18T01:33:02;31.57;;;17.80;;
9007;SDS011;62813;51.424;6.762;2023-11-18T01:35:30;34.90;;;19.83;;
9007;SDS011;62813;51.424;6.762;2023-11-18T01:37:57;32.93;;;18.83;;
9007;SDS011;62813;51.424;6.762;2023-11-18T01:40:24;29.37;;;17.13;;
9007;SDS011;62813;51.424;6.762;2023-11-18T01:42:51;35.07;;;19.50;;
9007;SDS011;62813;51.424;6.762;2023-11-18T01:45:18;32.63;;;18.30;;
9007;SDS011;62813;51.424;6.762;2023-11-18T01:47:46;30.53;;;18.33;;
9007;SDS011;62813;51.424;6.762;2023-11-18T01:50:15;30.37;;;18.47;;
9007;SDS011;62813;51.424;6.762;2023-11-18T01:52:44;31.63;;;18.67;;
9007;SDS011;62813;51.424;6.762;2023-11-18T01:55:12;28.20;;;17.53;;
9007;SDS011;62813;51.424;6.762;2023-11-18T01:57:40;31.23;;;18.83;;
9007;SDS011;62813;51.424;6.762;2023-11-18T02:00:11;28.53;;;17.63;;
9007;SDS011;62813;51.424;6.762;2023-11-18T02:02:38;29.70;;;18.07;;
9007;SDS011;62813;51.424;6.762;2023-11-18T02:05:07;29.60;;;18.00;;
9007;SDS011;62813;51.424;6.762;2023-11-18T02:07:34;30.10;;;18.23;;
9007;SDS011;62813;51.424;6.762;2023-11-18T02:10:04;30.13;;;18.20;;
9007;SDS011;62813;51.424;6.762;2023-11-18T02:15:33;29.00;;;19.10;;
9007;SDS011;62813;51.424;6.762;2023-11-18T02:18:02;32.10;;;17.03;;
9007;SDS011;62813;51.424;6.762;2023-11-18T02:20:32;27.70;;;17.20;;
9007;SDS011;62813;51.424;6.762;2023-11-18T02:23:00;30.03;;;18.60;;
9007;SDS011;62813;51.424;6.762;2023-11-18T02:25:27;28.77;;;17.70;;
9007;SDS011;62813;51.424;6.762;2023-11-18T02:27:55;29.43;;;17.87;;
9007;SDS011;62813;51.424;6.762;2023-11-18T02:30:22;29.60;;;17.43;;
9007;SDS011;62813;51.424;6.762;2023-11-18T02:35:23;28.10;;;17.70;;
9007;SDS011;62813;51.424;6.762;2023-11-18T02:37:53;29.97;;;17.97;;
9007;SDS011;62813;51.424;6.762;2023-11-18T02:40:29;26.77;;;17.33;;
9007;SDS011;62813;51.424;6.762;2023-11-18T02:43:00;27.07;;;17.40;;
9007;SDS011;62813;51.424;6.762;2023-11-18T02:45:31;27.43;;;17.27;;
9007;SDS011;62813;51.424;6.762;2023-11-18T02:48:00;26.53;;;17.33;;
9007;SDS011;62813;51.424;6.762;2023-11-18T02:50:27;27.53;;;17.83;;
9007;SDS011;62813;51.424;6.762;2023-11-18T02:52:54;27.33;;;17.53;;
9007;SDS011;62813;51.424;6.762;2023-11-18T02:55:21;30.57;;;17.93;;
9007;SDS011;62813;51.424;6.762;2023-11-18T02:57:49;26.37;;;17.97;;
9007;SDS011;62813;51.424;6.762;2023-11-18T03:00:18;27.23;;;17.03;;
9007;SDS011;62813;51.424;6.762;2023-11-18T03:02:45;29.90;;;17.03;;
9007;SDS011;62813;51.424;6.762;2023-11-18T03:05:17;26.10;;;17.37;;
9007;SDS011;62813;51.424;6.762;2023-11-18T03:07:44;27.37;;;17.40;;
9007;SDS011;62813;51.424;6.762;2023-11-18T03:10:16;28.40;;;17.47;;
9007;SDS011;62813;51.424;6.762;2023-11-18T03:12:48;31.27;;;16.90;;
9007;SDS011;62813;51.424;6.762;2023-11-18T03:15:16;23.87;;;16.93;;
9007;SDS011;62813;51.424;6.762;2023-11-18T03:17:44;25.57;;;17.00;;
9007;SDS011;62813;51.424;6.762;2023-11-18T03:20:12;25.20;;;16.77;;
9007;SDS011;62813;51.424;6.762;2023-11-18T03:22:40;26.30;;;16.60;;
9007;SDS011;62813;51.424;6.762;2023-11-18T03:25:07;24.57;;;16.03;;
9007;SDS011;62813;51.424;6.762;2023-11-18T03:27:34;26.20;;;17.60;;
9007;SDS011;62813;51.424;6.762;2023-11-18T03:30:01;22.80;;;16.23;;
9007;SDS011;62813;51.424;6.762;2023-11-18T03:32:28;24.23;;;16.93;;
9007;SDS011;62813;51.424;6.762;2023-11-18T03:34:55;24.27;;;16.60;;
9007;SDS011;62813;51.424;6.762;2023-11-18T03:37:21;24.67;;;15.60;;
9007;SDS011;62813;51.424;6.762;2023-11-18T03:39:49;25.70;;;16.60;;
9007;SDS011;62813;51.424;6.762;2023-11-18T03:42:16;24.30;;;16.37;;
9007;SDS011;62813;51.424;6.762;2023-11-18T03:44:42;22.47;;;15.27;;
9007;SDS011;62813;51.424;6.762;2023-11-18T03:47:09;27.67;;;16.33;;
9007;SDS011;62813;51.424;6.762;2023-11-18T03:49:36;25.40;;;16.33;;
9007;SDS011;62813;51.424;6.762;2023-11-18T03:52:03;23.63;;;16.53;;
9007;SDS011;62813;51.424;6.762;2023-11-18T03:54:29;24.40;;;16.20;;
9007;SDS011;62813;51.424;6.762;2023-11-18T03:56:56;24.70;;;16.73;;
9007;SDS011;62813;51.424;6.762;2023-11-18T03:59:23;24.30;;;16.80;;
9007;SDS011;62813;51.424;6.762;2023-11-18T04:01:49;26.10;;;16.70;;
9007;SDS011;62813;51.424;6.762;2023-11-18T04:04:17;22.93;;;14.70;;
9007;SDS011;62813;51.424;6.762;2023-11-18T04:06:44;25.83;;;16.90;;
9007;SDS011;62813;51.424;6.762;2023-11-18T04:09:13;23.60;;;16.73;;
9007;SDS011;62813;51.424;6.762;2023-11-18T04:11:40;25.23;;;16.27;;
9007;SDS011;62813;51.424;6.762;2023-11-18T04:14:11;25.07;;;16.27;;
9007;SDS011;62813;51.424;6.762;2023-11-18T04:16:38;21.57;;;14.63;;
9007;SDS011;62813;51.424;6.762;2023-11-18T04:19:05;23.80;;;15.63;;
9007;SDS011;62813;51.424;6.762;2023-11-18T04:21:32;25.87;;;15.53;;
9007;SDS011;62813;51.424;6.762;2023-11-18T04:23:59;22.40;;;15.13;;
9007;SDS011;62813;51.424;6.762;2023-11-18T04:26:26;22.20;;;15.67;;
9007;SDS011;62813;51.424;6.762;2023-11-18T04:28:53;23.13;;;16.07;;
9007;SDS011;62813;51.424;6.762;2023-11-18T04:31:19;23.63;;;14.83;;
9007;SDS011;62813;51.424;6.762;2023-11-18T04:33:47;21.80;;;14.90;;
9007;SDS011;62813;51.424;6.762;2023-11-18T04:36:14;23.50;;;15.67;;
9007;SDS011;62813;51.424;6.762;2023-11-18T04:38:42;23.03;;;15.43;;
9007;SDS011;62813;51.424;6.762;2023-11-18T04:41:12;23.67;;;15.37;;
9007;SDS011;62813;51.424;6.762;2023-11-18T04:43:39;22.63;;;15.10;;
9007;SDS011;62813;51.424;6.762;2023-11-18T04:46:11;22.70;;;15.60;;
9007;SDS011;62813;51.424;6.762;2023-11-18T04:48:38;23.07;;;16.53;;
9007;SDS011;62813;51.424;6.762;2023-11-18T04:51:07;23.77;;;15.90;;
9007;SDS011;62813;51.424;6.762;2023-11-18T04:53:35;21.97;;;16.17;;
9007;SDS011;62813;51.424;6.762;2023-11-18T04:56:01;22.53;;;15.80;;
9007;SDS011;62813;51.424;6.762;2023-11-18T04:58:29;24.73;;;16.93;;
9007;SDS011;62813;51.424;6.762;2023-11-18T05:00:56;24.43;;;16.43;;
9007;SDS011;62813;51.424;6.762;2023-11-18T05:03:23;20.63;;;14.70;;
9007;SDS011;62813;51.424;6.762;2023-11-18T05:05:51;20.57;;;14.57;;
9007;SDS011;62813;51.424;6.762;2023-11-18T05:08:22;20.03;;;14.73;;
9007;SDS011;62813;51.424;6.762;2023-11-18T05:10:49;21.17;;;14.57;;
9007;SDS011;62813;51.424;6.762;2023-11-18T05:13:17;20.07;;;14.50;;
9007;SDS011;62813;51.424;6.762;2023-11-18T05:15:45;20.17;;;14.17;;
9007;SDS011;62813;51.424;6.762;2023-11-18T05:18:13;20.70;;;14.23;;
9007;SDS011;62813;51.424;6.762;2023-11-18T05:20:42;22.70;;;15.67;;
9007;SDS011;62813;51.424;6.762;2023-11-18T05:23:10;22.17;;;14.20;;
9007;SDS011;62813;51.424;6.762;2023-11-18T05:25:44;20.57;;;14.17;;
9007;SDS011;62813;51.424;6.762;2023-11-18T05:28:11;20.13;;;14.50;;
9007;SDS011;62813;51.424;6.762;2023-11-18T05:30:38;20.57;;;14.33;;
9007;SDS011;62813;51.424;6.762;2023-11-18T05:33:07;22.20;;;14.83;;
9007;SDS011;62813;51.424;6.762;2023-11-18T05:35:35;20.23;;;15.10;;
9007;SDS011;62813;51.424;6.762;2023-11-18T05:38:02;21.20;;;14.43;;
9007;SDS011;62813;51.424;6.762;2023-11-18T05:40:32;20.47;;;14.63;;
9007;SDS011;62813;51.424;6.762;2023-11-18T05:43:02;22.30;;;14.17;;
9007;SDS011;62813;51.424;6.762;2023-11-18T05:45:32;21.53;;;14.73;;
9007;SDS011;62813;51.424;6.762;2023-11-18T05:48:10;19.93;;;14.30;;
9007;SDS011;62813;51.424;6.762;2023-11-18T05:50:37;21.67;;;14.63;;
9007;SDS011;62813;51.424;6.762;2023-11-18T05:53:09;21.50;;;14.73;;
9007;SDS011;62813;51.424;6.762;2023-11-18T05:55:36;20.97;;;13.33;;
9007;SDS011;62813;51.424;6.762;2023-11-18T05:58:02;21.40;;;14.93;;
9007;SDS011;62813;51.424;6.762;2023-11-18T06:00:29;19.77;;;14.30;;
9007;SDS011;62813;51.424;6.762;2023-11-18T06:02:58;19.43;;;13.93;;
9007;SDS011;62813;51.424;6.762;2023-11-18T06:05:25;20.17;;;13.17;;
9007;SDS011;62813;51.424;6.762;2023-11-18T06:07:52;22.27;;;14.83;;
9007;SDS011;62813;51.424;6.762;2023-11-18T06:10:20;20.77;;;15.20;;
9007;SDS011;62813;51.424;6.762;2023-11-18T06:12:46;21.40;;;15.30;;
9007;SDS011;62813;51.424;6.762;2023-11-18T06:15:13;22.67;;;14.90;;
9007;SDS011;62813;51.424;6.762;2023-11-18T06:17:43;19.73;;;14.23;;
9007;SDS011;62813;51.424;6.762;2023-11-18T06:20:11;17.67;;;13.40;;
9007;SDS011;62813;51.424;6.762;2023-11-18T06:22:40;21.33;;;13.83;;
9007;SDS011;62813;51.424;6.762;2023-11-18T06:25:07;19.83;;;14.43;;
9007;SDS011;62813;51.424;6.762;2023-11-18T06:27:35;19.70;;;14.80;;
9007;SDS011;62813;51.424;6.762;2023-11-18T06:30:02;21.60;;;15.20;;
9007;SDS011;62813;51.424;6.762;2023-11-18T06:32:28;18.50;;;13.93;;
9007;SDS011;62813;51.424;6.762;2023-11-18T06:34:55;20.73;;;14.00;;
9007;SDS011;62813;51.424;6.762;2023-11-18T06:37:22;25.57;;;15.23;;
9007;SDS011;62813;51.424;6.762;2023-11-18T06:39:48;25.17;;;17.13;;
9007;SDS011;62813;51.424;6.762;2023-11-18T06:42:16;20.57;;;14.73;;
9007;SDS011;62813;51.424;6.762;2023-11-18T06:44:44;24.20;;;15.87;;
9007;SDS011;62813;51.424;6.762;2023-11-18T06:47:10;19.43;;;14.37;;
9007;SDS011;62813;51.424;6.762;2023-11-18T06:49:39;24.20;;;16.13;;
9007;SDS011;62813;51.424;6.762;2023-11-18T06:52:07;23.27;;;14.93;;
9007;SDS011;62813;51.424;6.762;2023-11-18T06:54:36;20.77;;;15.23;;
9007;SDS011;62813;51.424;6.762;2023-11-18T06:57:04;22.93;;;14.60;;
9007;SDS011;62813;51.424;6.762;2023-11-18T06:59:30;22.73;;;15.10;;
9007;SDS011;62813;51.424;6.762;2023-11-18T07:01:57;22.70;;;14.60;;
9007;SDS011;62813;51.424;6.762;2023-11-18T07:04:24;20.83;;;14.47;;
9007;SDS011;62813;51.424;6.762;2023-11-18T07:06:51;22.83;;;15.53;;
9007;SDS011;62813;51.424;6.762;2023-11-18T07:09:18;22.47;;;15.17;;
9007;SDS011;62813;51.424;6.762;2023-11-18T07:11:47;19.77;;;14.43;;
9007;SDS011;62813;51.424;6.762;2023-11-18T07:14:15;23.47;;;15.67;;
9007;SDS011;62813;51.424;6.762;2023-11-18T07:16:42;19.87;;;14.90;;
9007;SDS011;62813;51.424;6.762;2023-11-18T07:19:10;19.10;;;13.17;;
9007;SDS011;62813;51.424;6.762;2023-11-18T07:21:44;22.17;;;15.13;;
9007;SDS011;62813;51.424;6.762;2023-11-18T07:24:10;19.80;;;14.33;;
9007;SDS011;62813;51.424;6.762;2023-11-18T07:26:37;19.53;;;13.30;;
9007;SDS011;62813;51.424;6.762;2023-11-18T07:29:04;18.77;;;14.17;;
9007;SDS011;62813;51.424;6.762;2023-11-18T07:31:34;25.67;;;14.47;;
9007;SDS011;62813;51.424;6.762;2023-11-18T07:34:03;17.97;;;13.00;;
9007;SDS011;62813;51.424;6.762;2023-11-18T07:36:32;23.17;;;14.63;;
9007;SDS011;62813;51.424;6.762;2023-11-18T07:38:59;21.80;;;14.50;;
9007;SDS011;62813;51.424;6.762;2023-11-18T07:41:33;19.17;;;13.87;;
9007;SDS011;62813;51.424;6.762;2023-11-18T07:44:00;22.67;;;14.27;;
9007;SDS011;62813;51.424;6.762;2023-11-18T07:46:27;20.53;;;13.77;;
9007;SDS011;62813;51.424;6.762;2023-11-18T07:48:58;19.27;;;14.03;;
9007;SDS011;62813;51.424;6.762;2023-11-18T07:51:24;18.40;;;13.63;;
9007;SDS011;62813;51.424;6.762;2023-11-18T07:53:51;20.77;;;14.03;;
9007;SDS011;62813;51.424;6.762;2023-11-18T07:56:19;19.97;;;13.57;;
9007;SDS011;62813;51.424;6.762;2023-11-18T07:58:49;20.33;;;13.03;;
9007;SDS011;62813;51.424;6.762;2023-11-18T08:01:19;18.27;;;13.10;;
9007;SDS011;62813;51.424;6.762;2023-11-18T08:03:48;17.10;;;12.77;;
9007;SDS011;62813;51.424;6.762;2023-11-18T08:06:17;19.13;;;13.97;;
9007;SDS011;62813;51.424;6.762;2023-11-18T08:08:44;18.80;;;13.03;;
9007;SDS011;62813;51.424;6.762;2023-11-18T08:11:12;19.50;;;14.23;;
9007;SDS011;62813;51.424;6.762;2023-11-18T08:13:39;18.27;;;13.17;;
9007;SDS011;62813;51.424;6.762;2023-11-18T08:16:06;19.17;;;13.33;;
9007;SDS011;62813;51.424;6.762;2023-11-18T08:18:35;21.37;;;12.90;;
9007;SDS011;62813;51.424;6.762;2023-11-18T08:21:03;19.33;;;12.80;;
9007;SDS011;62813;51.424;6.762;2023-11-18T08:23:33;22.80;;;14.23;;
9007;SDS011;62813;51.424;6.762;2023-11-18T08:26:00;20.97;;;14.13;;
9007;SDS011;62813;51.424;6.762;2023-11-18T08:28:27;19.40;;;12.80;;
9007;SDS011;62813;51.424;6.762;2023-11-18T08:30:54;17.90;;;13.47;;
9007;SDS011;62813;51.424;6.762;2023-11-18T08:33:21;18.03;;;12.77;;
9007;SDS011;62813;51.424;6.762;2023-11-18T08:35:50;17.77;;;12.10;;
9007;SDS011;62813;51.424;6.762;2023-11-18T08:38:17;18.47;;;12.70;;
9007;SDS011;62813;51.424;6.762;2023-11-18T08:40:44;16.97;;;11.43;;
9007;SDS011;62813;51.424;6.762;2023-11-18T08:43:12;16.40;;;12.03;;
9007;SDS011;62813;51.424;6.762;2023-11-18T08:45:38;16.70;;;11.80;;
9007;SDS011;62813;51.424;6.762;2023-11-18T08:48:07;14.97;;;11.47;;
9007;SDS011;62813;51.424;6.762;2023-11-18T08:50:35;19.70;;;12.50;;
9007;SDS011;62813;51.424;6.762;2023-11-18T08:53:06;14.73;;;10.87;;
9007;SDS011;62813;51.424;6.762;2023-11-18T08:55:37;15.63;;;10.40;;
9007;SDS011;62813;51.424;6.762;2023-11-18T08:58:10;13.63;;;10.77;;
9007;SDS011;62813;51.424;6.762;2023-11-18T09:00:56;18.63;;;12.30;;
9007;SDS011;62813;51.424;6.762;2023-11-18T09:03:41;16.47;;;12.37;;
9007;SDS011;62813;51.424;6.762;2023-11-18T09:06:19;18.90;;;11.23;;
9007;SDS011;62813;51.424;6.762;2023-11-18T09:08:55;15.83;;;10.47;;
9007;SDS011;62813;51.424;6.762;2023-11-18T09:11:25;12.83;;;10.03;;
9007;SDS011;62813;51.424;6.762;2023-11-18T09:13:55;16.30;;;11.07;;
9007;SDS011;62813;51.424;6.762;2023-11-18T09:16:27;13.53;;;9.27;;
9007;SDS011;62813;51.424;6.762;2023-11-18T09:18:57;13.63;;;9.77;;
9007;SDS011;62813;51.424;6.762;2023-11-18T09:21:26;15.97;;;9.20;;
9007;SDS011;62813;51.424;6.762;2023-11-18T09:23:56;17.83;;;10.40;;
9007;SDS011;62813;51.424;6.762;2023-11-18T09:26:23;14.70;;;10.03;;
9007;SDS011;62813;51.424;6.762;2023-11-18T09:28:53;14.17;;;9.47;;
9007;SDS011;62813;51.424;6.762;2023-11-18T09:31:20;13.47;;;8.90;;
9007;SDS011;62813;51.424;6.762;2023-11-18T09:33:48;11.07;;;8.27;;
9007;SDS011;62813;51.424;6.762;2023-11-18T09:36:19;29.03;;;10.40;;
9007;SDS011;62813;51.424;6.762;2023-11-18T09:38:48;16.43;;;9.67;;
9007;SDS011;62813;51.424;6.762;2023-11-18T09:41:16;10.33;;;7.60;;
9007;SDS011;62813;51.424;6.762;2023-11-18T09:43:44;13.73;;;8.90;;
9007;SDS011;62813;51.424;6.762;2023-11-18T09:51:19;13.03;;;7.57;;
9007;SDS011;62813;51.424;6.762;2023-11-18T09:53:53;10.97;;;7.10;;
9007;SDS011;62813;51.424;6.762;2023-11-18T09:59:07;8.87;;;6.83;;
9007;SDS011;62813;51.424;6.762;2023-11-18T10:01:43;10.83;;;6.67;;
9007;SDS011;62813;51.424;6.762;2023-11-18T10:04:11;11.17;;;7.60;;
9007;SDS011;62813;51.424;6.762;2023-11-18T10:06:39;8.43;;;6.60;;
9007;SDS011;62813;51.424;6.762;2023-11-18T10:09:11;12.00;;;7.63;;
9007;SDS011;62813;51.424;6.762;2023-11-18T10:11:47;14.33;;;8.50;;
9007;SDS011;62813;51.424;6.762;2023-11-18T10:14:14;15.53;;;7.80;;
9007;SDS011;62813;51.424;6.762;2023-11-18T10:16:44;11.37;;;6.97;;
9007;SDS011;62813;51.424;6.762;2023-11-18T10:19:14;9.37;;;7.07;;
9007;SDS011;62813;51.424;6.762;2023-11-18T10:21:45;9.17;;;6.37;;
9007;SDS011;62813;51.424;6.762;2023-11-18T10:24:16;8.53;;;6.27;;
9007;SDS011;62813;51.424;6.762;2023-11-18T10:26:55;7.80;;;6.10;;
9007;SDS011;62813;51.424;6.762;2023-11-18T10:29:23;8.33;;;6.37;;
9007;SDS011;62813;51.424;6.762;2023-11-18T10:32:06;7.57;;;5.90;;
9007;SDS011;62813;51.424;6.762;2023-11-18T10:34:35;8.47;;;6.07;;
9007;SDS011;62813;51.424;6.762;2023-11-18T10:37:02;8.83;;;5.83;;
9007;SDS011;62813;51.424;6.762;2023-11-18T10:39:29;6.77;;;5.80;;
9007;SDS011;62813;51.424;6.762;2023-11-18T10:41:59;9.73;;;6.07;;
9007;SDS011;62813;51.424;6.762;2023-11-18T10:44:26;9.53;;;6.43;;
9007;SDS011;62813;51.424;6.762;2023-11-18T10:46:56;12.50;;;6.70;;
9007;SDS011;62813;51.424;6.762;2023-11-18T10:49:28;7.90;;;6.17;;
9007;SDS011;62813;51.424;6.762;2023-11-18T10:52:04;13.63;;;6.30;;
9007;SDS011;62813;51.424;6.762;2023-11-18T10:54:35;10.27;;;6.20;;
9007;SDS011;62813;51.424;6.762;2023-11-18T10:57:03;10.20;;;6.67;;
9007;SDS011;62813;51.424;6.762;2023-11-18T10:59:34;9.20;;;7.00;;
9007;SDS011;62813;51.424;6.762;2023-11-18T11:02:17;10.70;;;6.67;;
9007;SDS011;62813;51.424;6.762;2023-11-18T11:04:46;7.23;;;6.23;;
9007;SDS011;62813;51.424;6.762;2023-11-18T11:07:12;9.23;;;6.03;;
9007;SDS011;62813;51.424;6.762;2023-11-18T11:09:42;12.30;;;6.97;;
9007;SDS011;62813;51.424;6.762;2023-11-18T11:12:12;10.67;;;6.13;;
9007;SDS011;62813;51.424;6.762;2023-11-18T11:14:48;8.83;;;6.20;;
9007;SDS011;62813;51.424;6.762;2023-11-18T11:17:23;9.33;;;6.60;;
9007;SDS011;62813;51.424;6.762;2023-11-18T11:25:41;11.17;;;6.83;;
9007;SDS011;62813;51.424;6.762;2023-11-18T11:28:20;10.87;;;7.20;;
9007;SDS011;62813;51.424;6.762;2023-11-18T11:33:41;10.00;;;7.00;;
9007;SDS011;62813;51.424;6.762;2023-11-18T11:36:12;9.73;;;6.70;;
9007;SDS011;62813;51.424;6.762;2023-11-18T11:38:44;14.40;;;7.40;;
9007;SDS011;62813;51.424;6.762;2023-11-18T11:41:13;12.20;;;8.30;;
9007;SDS011;62813;51.424;6.762;2023-11-18T11:43:47;7.93;;;7.10;;
9007;SDS011;62813;51.424;6.762;2023-11-18T11:46:15;9.13;;;6.70;;
9007;SDS011;62813;51.424;6.762;2023-11-18T11:48:50;11.07;;;6.93;;
9007;SDS011;62813;51.424;6.762;2023-11-18T11:53:53;10.53;;;7.30;;
9007;SDS011;62813;51.424;6.762;2023-11-18T11:56:21;10.07;;;7.03;;
9007;SDS011;62813;51.424;6.762;2023-11-18T11:59:04;9.57;;;7.00;;
9007;SDS011;62813;51.424;6.762;2023-11-18T12:01:37;9.50;;;6.73;;
9007;SDS011;62813;51.424;6.762;2023-11-18T12:04:05;9.07;;;7.13;;
9007;SDS011;62813;51.424;6.762;2023-11-18T12:06:41;7.73;;;6.93;;
9007;SDS011;62813;51.424;6.762;2023-11-18T12:09:09;11.70;;;7.10;;
9007;SDS011;62813;51.424;6.762;2023-11-18T12:11:36;9.83;;;6.83;;
9007;SDS011;62813;51.424;6.762;2023-11-18T12:14:06;10.60;;;6.80;;
9007;SDS011;62813;51.424;6.762;2023-11-18T12:17:06;10.40;;;7.40;;
9007;SDS011;62813;51.424;6.762;2023-11-18T12:19:48;15.70;;;6.80;;
9007;SDS011;62813;51.424;6.762;2023-11-18T12:22:18;13.47;;;7.40;;
9007;SDS011;62813;51.424;6.762;2023-11-18T12:33:00;9.27;;;7.07;;
9007;SDS011;62813;51.424;6.762;2023-11-18T12:40:56;15.27;;;8.80;;
9007;SDS011;62813;51.424;6.762;2023-11-18T12:49:22;9.13;;;7.07;;
9007;SDS011;62813;51.424;6.762;2023-11-18T12:51:51;13.57;;;7.80;;
9007;SDS011;62813;51.424;6.762;2023-11-18T12:54:19;11.47;;;6.90;;
9007;SDS011;62813;51.424;6.762;2023-11-18T12:56:50;13.40;;;7.40;;
9007;SDS011;62813;51.424;6.762;2023-11-18T12:59:22;9.37;;;7.03;;
9007;SDS011;62813;51.424;6.762;2023-11-18T13:01:50;10.53;;;6.60;;
9007;SDS011;62813;51.424;6.762;2023-11-18T13:04:24;11.90;;;6.90;;
9007;SDS011;62813;51.424;6.762;2023-11-18T13:06:52;8.40;;;5.97;;
9007;SDS011;62813;51.424;6.762;2023-11-18T13:09:21;10.33;;;6.30;;
9007;SDS011;62813;51.424;6.762;2023-11-18T13:11:53;8.73;;;5.83;;
9007;SDS011;62813;51.424;6.762;2023-11-18T13:14:28;12.50;;;7.03;;
9007;SDS011;62813;51.424;6.762;2023-11-18T13:16:56;13.23;;;6.73;;
9007;SDS011;62813;51.424;6.762;2023-11-18T13:19:27;10.57;;;6.50;;
9007;SDS011;62813;51.424;6.762;2023-11-18T13:21:56;10.67;;;6.83;;
9007;SDS011;62813;51.424;6.762;2023-11-18T13:24:26;9.60;;;6.23;;
9007;SDS011;62813;51.424;6.762;2023-11-18T13:26:54;7.83;;;5.47;;
9007;SDS011;62813;51.424;6.762;2023-11-18T13:29:22;9.77;;;6.40;;
9007;SDS011;62813;51.424;6.762;2023-11-18T13:31:52;12.53;;;6.47;;
9007;SDS011;62813;51.424;6.762;2023-11-18T13:34:19;10.53;;;6.97;;
9007;SDS011;62813;51.424;6.762;2023-11-18T13:36:47;14.37;;;8.53;;
9007;SDS011;62813;51.424;6.762;2023-11-18T13:39:17;16.73;;;10.77;;
9007;SDS011;62813;51.424;6.762;2023-11-18T13:41:47;11.27;;;6.90;;
9007;SDS011;62813;51.424;6.762;2023-11-18T13:44:33;8.77;;;5.50;;
9007;SDS011;62813;51.424;6.762;2023-11-18T13:47:07;10.50;;;4.93;;
9007;SDS011;62813;51.424;6.762;2023-11-18T13:49:38;7.97;;;4.80;;
9007;SDS011;62813;51.424;6.762;2023-11-18T13:52:08;8.10;;;4.80;;
9007;SDS011;62813;51.424;6.762;2023-11-18T13:54:37;7.50;;;5.27;;
9007;SDS011;62813;51.424;6.762;2023-11-18T13:57:05;11.57;;;4.90;;
9007;SDS011;62813;51.424;6.762;2023-11-18T13:59:32;8.80;;;4.53;;
9007;SDS011;62813;51.424;6.762;2023-11-18T14:02:00;9.47;;;5.33;;
9007;SDS011;62813;51.424;6.762;2023-11-18T14:04:31;9.93;;;4.40;;
9007;SDS011;62813;51.424;6.762;2023-11-18T14:07:00;6.10;;;4.43;;
9007;SDS011;62813;51.424;6.762;2023-11-18T14:09:36;8.30;;;3.73;;
9007;SDS011;62813;51.424;6.762;2023-11-18T14:12:07;7.07;;;3.93;;
9007;SDS011;62813;51.424;6.762;2023-11-18T14:14:35;7.63;;;3.90;;
9007;SDS011;62813;51.424;6.762;2023-11-18T14:17:02;7.20;;;3.93;;
9007;SDS011;62813;51.424;6.762;2023-11-18T14:19:29;6.03;;;3.57;;
9007;SDS011;62813;51.424;6.762;2023-11-18T14:21:56;5.97;;;3.40;;
9007;SDS011;62813;51.424;6.762;2023-11-18T14:24:23;8.23;;;3.70;;
9007;SDS011;62813;51.424;6.762;2023-11-18T14:26:54;4.83;;;3.23;;
9007;SDS011;62813;51.424;6.762;2023-11-18T14:29:23;7.90;;;3.53;;
9007;SDS011;62813;51.424;6.762;2023-11-18T14:31:54;9.83;;;3.70;;
9007;SDS011;62813;51.424;6.762;2023-11-18T14:34:21;7.87;;;3.57;;
9007;SDS011;62813;51.424;6.762;2023-11-18T14:36:48;4.83;;;3.37;;
9007;SDS011;62813;51.424;6.762;2023-11-18T14:39:15;5.73;;;3.23;;
9007;SDS011;62813;51.424;6.762;2023-11-18T14:41:49;8.23;;;3.60;;
9007;SDS011;62813;51.424;6.762;2023-11-18T14:44:17;5.73;;;3.53;;
9007;SDS011;62813;51.424;6.762;2023-11-18T14:46:44;5.83;;;3.03;;
9007;SDS011;62813;51.424;6.762;2023-11-18T14:49:12;6.43;;;3.30;;
9007;SDS011;62813;51.424;6.762;2023-11-18T14:51:39;7.33;;;4.80;;
9007;SDS011;62813;51.424;6.762;2023-11-18T14:54:06;8.37;;;5.07;;
9007;SDS011;62813;51.424;6.762;2023-11-18T14:56:36;7.73;;;3.73;;
9007;SDS011;62813;51.424;6.762;2023-11-18T14:59:03;5.73;;;3.37;;
9007;SDS011;62813;51.424;6.762;2023-11-18T15:01:32;7.53;;;3.33;;
9007;SDS011;62813;51.424;6.762;2023-11-18T15:03:59;5.40;;;3.53;;
9007;SDS011;62813;51.424;6.762;2023-11-18T15:06:27;6.27;;;3.33;;
9007;SDS011;62813;51.424;6.762;2023-11-18T15:08:54;8.67;;;3.77;;
9007;SDS011;62813;51.424;6.762;2023-11-18T15:11:24;6.67;;;4.00;;
9007;SDS011;62813;51.424;6.762;2023-11-18T15:13:51;4.47;;;3.67;;
9007;SDS011;62813;51.424;6.762;2023-11-18T15:16:23;8.67;;;4.00;;
9007;SDS011;62813;51.424;6.762;2023-11-18T15:18:49;12.70;;;5.77;;
9007;SDS011;62813;51.424;6.762;2023-11-18T15:21:19;9.23;;;4.23;;
9007;SDS011;62813;51.424;6.762;2023-11-18T15:23:46;8.03;;;4.03;;
9007;SDS011;62813;51.424;6.762;2023-11-18T15:26:14;7.80;;;4.00;;
9007;SDS011;62813;51.424;6.762;2023-11-18T15:28:42;6.50;;;4.03;;
9007;SDS011;62813;51.424;6.762;2023-11-18T15:31:09;8.23;;;4.50;;
9007;SDS011;62813;51.424;6.762;2023-11-18T15:33:35;7.53;;;3.90;;
9007;SDS011;62813;51.424;6.762;2023-11-18T15:36:02;8.03;;;4.07;;
9007;SDS011;62813;51.424;6.762;2023-11-18T15:38:29;6.77;;;3.57;;